Time;durP1;ratioP1;P1;durP2;ratioP2;P2;SDS_P1;SDS_P2;PMS_P1;PMS_P2;Temp;Humidity;BMP_temperature;BMP_pressure;BME280_temperature;BME280_humidity;BME280_pressure;Samples;Min_cycle;Max_cycle;Signal;HPM_P1;HPM_P2
2021/07/03 00:01:13;;;;;;;11.65;4.45;;;;;;;19.87;100.00;100572.81;1699750;84;20987;-83
2021/07/03 00:03:39;;;;;;;9.75;4.90;;;;;;;19.80;100.00;100563.91;1674792;84;21726;-83
2021/07/03 00:06:08;;;;;;;7.05;4.60;;;;;;;19.71;100.00;100568.83;1667937;86;20971;-80
2021/07/03 00:08:36;;;;;;;10.10;4.75;;;;;;;19.64;100.00;100567.83;1672472;85;21549;-81
2021/07/03 00:11:05;;;;;;;16.57;5.00;;;;;;;19.58;100.00;100571.11;1668265;86;20986;-84
2021/07/03 00:13:33;;;;;;;14.13;6.08;;;;;;;19.54;100.00;100567.97;1672223;85;21018;-82
2021/07/03 00:16:00;;;;;;;9.55;5.33;;;;;;;19.46;100.00;100569.25;1668264;86;21161;-81
2021/07/03 00:18:28;;;;;;;9.73;5.45;;;;;;;19.43;100.00;100572.20;1672218;85;21761;-80
2021/07/03 00:20:56;;;;;;;9.13;5.45;;;;;;;19.45;100.00;100572.89;1667871;86;21103;-82
2021/07/03 00:23:22;;;;;;;12.63;5.53;;;;;;;19.50;100.00;100581.11;1672121;85;20983;-82
2021/07/03 00:25:49;;;;;;;14.40;5.17;;;;;;;19.54;100.00;100588.20;1668151;86;21027;-82
2021/07/03 00:28:15;;;;;;;19.07;5.28;;;;;;;19.58;100.00;100585.59;1672454;85;21103;-82
2021/07/03 00:30:42;;;;;;;9.35;4.60;;;;;;;19.58;100.00;100584.27;1668267;86;21564;-84
2021/07/03 00:33:09;;;;;;;8.38;4.50;;;;;;;19.59;100.00;100582.47;1672484;85;21003;-81
2021/07/03 00:35:36;;;;;;;9.93;5.28;;;;;;;19.55;100.00;100574.06;1667941;86;21014;-79
2021/07/03 00:38:03;;;;;;;12.40;4.55;;;;;;;19.50;100.00;100569.75;1672339;85;21106;-81
2021/07/03 00:40:30;;;;;;;12.33;4.33;;;;;;;19.45;100.00;100572.89;1667929;86;21103;-82
2021/07/03 00:42:57;;;;;;;15.55;4.67;;;;;;;19.42;100.00;100568.43;1653358;85;21059;-84
2021/07/03 00:45:25;;;;;;;11.18;4.10;;;;;;;19.38;100.00;100566.58;1659924;86;21553;-80
2021/07/03 00:47:52;;;;;;;9.03;4.40;;;;;;;19.37;100.00;100570.67;1672360;85;21015;-82
2021/07/03 00:50:20;;;;;;;13.50;4.22;;;;;;;19.34;100.00;100569.67;1668142;86;21069;-81
2021/07/03 00:52:46;;;;;;;13.48;5.05;;;;;;;19.33;100.00;100561.47;1672380;85;21202;-82
2021/07/03 00:55:16;;;;;;;10.25;4.37;;;;;;;19.31;100.00;100568.19;1668020;86;20971;-82
2021/07/03 00:57:44;;;;;;;9.18;3.85;;;;;;;19.31;100.00;100569.99;1672432;85;20991;-81
2021/07/03 01:00:12;;;;;;;16.45;5.10;;;;;;;19.30;100.00;100567.88;1667930;86;21447;-81
2021/07/03 01:02:40;;;;;;;9.58;4.42;;;;;;;19.31;100.00;100566.88;1678169;84;20979;-81
2021/07/03 01:05:08;;;;;;;12.93;4.22;;;;;;;19.33;100.00;100569.36;1703000;84;21128;-82
2021/07/03 01:07:36;;;;;;;13.95;4.95;;;;;;;19.36;100.00;100564.61;1699936;84;21530;-80
2021/07/03 01:10:06;;;;;;;15.78;4.45;;;;;;;19.38;100.00;100563.95;1699853;84;21002;-84
2021/07/03 01:12:33;;;;;;;12.78;4.95;;;;;;;19.38;100.00;100562.63;1699783;84;21374;-82
2021/07/03 01:15:01;;;;;;;11.22;4.35;;;;;;;19.36;100.00;100560.66;1699834;84;20907;-84
2021/07/03 01:17:29;;;;;;;10.78;4.53;;;;;;;19.33;100.00;100564.92;1699355;84;21157;-79
2021/07/03 01:19:57;;;;;;;13.10;4.72;;;;;;;19.32;100.00;100562.44;1699524;84;20999;-81
2021/07/03 01:22:24;;;;;;;13.55;4.75;;;;;;;19.28;100.00;100557.98;1699780;84;21054;-82
2021/07/03 01:24:51;;;;;;;11.75;4.37;;;;;;;19.27;100.00;100554.22;1674123;84;20919;-85
2021/07/03 01:27:17;;;;;;;11.12;5.08;;;;;;;19.24;100.00;100550.59;1699751;84;21046;-80
2021/07/03 01:29:45;;;;;;;14.43;4.78;;;;;;;19.19;100.00;100554.17;1699664;84;21104;-82
2021/07/03 01:32:12;;;;;;;8.40;4.00;;;;;;;19.14;100.00;100552.52;1699840;84;20999;-81
2021/07/03 01:34:40;;;;;;;11.80;4.37;;;;;;;19.09;100.00;100548.20;1699614;84;20915;-85
2021/07/03 01:37:08;;;;;;;10.60;4.90;;;;;;;19.01;100.00;100547.22;1699680;84;20951;-82
2021/07/03 01:39:36;;;;;;;9.88;4.70;;;;;;;18.94;100.00;100544.05;1699602;84;21065;-80
2021/07/03 01:42:05;;;;;;;13.62;4.87;;;;;;;18.86;100.00;100543.51;1699886;84;21074;-81
2021/07/03 01:44:33;;;;;;;10.25;4.58;;;;;;;18.83;100.00;100552.20;1699673;84;21608;-77
2021/07/03 01:47:02;;;;;;;10.82;4.33;;;;;;;18.78;100.00;100545.28;1700013;84;20998;-81
2021/07/03 01:49:36;;;;;;;16.97;4.87;;;;;;;18.75;100.00;100552.17;1697273;84;20950;-81
2021/07/03 01:52:05;;;;;;;19.30;5.42;;;;;;;18.73;100.00;100562.83;1699770;84;21022;-81
2021/07/03 01:54:32;;;;;;;14.15;4.15;;;;;;;18.74;100.00;100571.06;1699820;84;21042;-81
2021/07/03 01:57:02;;;;;;;10.48;3.90;;;;;;;18.75;100.00;100572.72;1699713;84;21062;-82
2021/07/03 01:59:32;;;;;;;14.87;4.30;;;;;;;18.76;100.00;100578.29;1699421;84;20903;-82
2021/07/03 02:02:04;;;;;;;12.98;4.50;;;;;;;18.76;100.00;100578.29;1699993;84;20959;-86
2021/07/03 02:04:32;;;;;;;12.75;4.45;;;;;;;18.74;100.00;100571.06;1699848;84;21134;-82
2021/07/03 02:07:00;;;;;;;17.27;4.78;;;;;;;18.74;100.00;100580.74;1699831;84;21973;-83
2021/07/03 02:09:28;;;;;;;17.15;4.58;;;;;;;18.72;100.00;100577.45;1699654;84;21455;-80
2021/07/03 02:11:57;;;;;;;9.35;4.03;;;;;;;18.71;100.00;100577.11;1699724;83;20915;-81
2021/07/03 02:14:26;;;;;;;13.50;4.33;;;;;;;18.68;100.00;100571.69;1699873;83;20979;-82
2021/07/03 02:17:00;;;;;;;10.65;4.42;;;;;;;18.67;100.00;100573.97;1699604;84;21498;-84
2021/07/03 02:19:29;;;;;;;10.38;4.92;;;;;;;18.65;100.00;100574.62;1700170;84;20971;-81
2021/07/03 02:21:57;;;;;;;14.38;4.42;;;;;;;18.64;100.00;100568.19;1700142;84;21541;-83
2021/07/03 02:24:25;;;;;;;8.00;4.35;;;;;;;18.64;100.00;100570.82;1699859;84;21690;-80
2021/07/03 02:26:52;;;;;;;16.50;4.83;;;;;;;18.64;100.00;100570.82;1700601;84;20951;-84
2021/07/03 02:29:19;;;;;;;11.15;4.47;;;;;;;18.62;100.00;100568.36;1700504;84;20927;-81
2021/07/03 02:31:48;;;;;;;11.30;4.67;;;;;;;18.61;100.00;100569.33;1700319;84;21780;-82
2021/07/03 02:34:15;;;;;;;9.45;4.28;;;;;;;18.60;100.00;100572.96;1699906;84;21588;-84
2021/07/03 02:36:42;;;;;;;11.63;4.72;;;;;;;18.62;100.00;100578.88;1697416;84;21560;-81
2021/07/03 02:39:11;;;;;;;8.53;4.50;;;;;;;18.66;100.00;100578.08;1699788;84;21553;-86
2021/07/03 02:41:40;;;;;;;11.28;4.47;;;;;;;18.68;100.00;100577.42;1699923;84;23806;-80
2021/07/03 02:44:07;;;;;;;16.90;4.58;;;;;;;18.68;100.00;100583.52;1699605;84;21116;-81
2021/07/03 02:46:35;;;;;;;14.20;4.67;;;;;;;18.69;100.00;100586.48;1699732;84;20998;-86
2021/07/03 02:49:01;;;;;;;20.90;5.42;;;;;;;18.69;100.00;100589.60;1699709;84;20960;-82
2021/07/03 02:51:29;;;;;;;15.72;5.00;;;;;;;18.70;100.00;100587.31;1699769;84;20999;-78
2021/07/03 02:53:57;;;;;;;9.65;4.78;;;;;;;18.72;100.00;100582.23;1699717;84;21059;-79
2021/07/03 02:56:24;;;;;;;17.60;4.75;;;;;;;18.74;100.00;100585.52;1699742;84;21115;-80
2021/07/03 02:58:51;;;;;;;15.70;4.33;;;;;;;18.77;100.00;100587.00;1699686;84;21051;-80
2021/07/03 03:01:19;;;;;;;17.37;4.58;;;;;;;18.83;100.00;100592.95;1699841;84;21032;-80
2021/07/03 03:03:47;;;;;;;10.63;4.60;;;;;;;18.86;100.00;100588.69;1699667;84;21046;-88
2021/07/03 03:06:15;;;;;;;13.50;4.92;;;;;;;18.86;100.00;100584.75;1699628;84;20966;-83
2021/07/03 03:08:44;;;;;;;13.38;4.92;;;;;;;18.87;100.00;100592.98;1699691;84;21111;-85
2021/07/03 03:11:12;;;;;;;13.83;4.33;;;;;;;18.85;100.00;100588.38;1697236;84;20974;-84
2021/07/03 03:13:40;;;;;;;10.60;4.83;;;;;;;18.83;100.00;100587.69;1697332;84;21022;-81
2021/07/03 03:16:07;;;;;;;10.85;4.87;;;;;;;18.80;100.00;100594.09;1699703;84;21553;-83
2021/07/03 03:18:33;;;;;;;13.43;4.85;;;;;;;18.80;100.00;100595.41;1699865;84;21002;-80
2021/07/03 03:21:01;;;;;;;12.33;4.85;;;;;;;18.80;100.00;100594.09;1699830;84;21062;-83
2021/07/03 03:23:28;;;;;;;9.53;4.62;;;;;;;18.82;100.00;100596.58;1700005;84;20856;-80
2021/07/03 03:25:57;;;;;;;15.85;4.78;;;;;;;18.84;100.00;100598.55;1699587;84;20943;-83
2021/07/03 03:28:25;;;;;;;10.55;4.90;;;;;;;18.85;100.00;100604.16;1699791;84;20995;-82
2021/07/03 03:30:51;;;;;;;11.65;4.45;;;;;;;18.88;100.00;100604.67;1699704;84;20931;-80
2021/07/03 03:33:22;;;;;;;14.70;4.40;;;;;;;18.90;100.00;100604.50;1699784;84;21116;-85
2021/07/03 03:35:48;;;;;;;9.48;4.40;;;;;;;18.93;100.00;100602.39;1673817;84;21046;-81
2021/07/03 03:38:15;;;;;;;8.20;4.20;;;;;;;18.98;100.00;100600.10;1699944;84;21022;-76
2021/07/03 03:40:43;;;;;;;9.10;4.30;;;;;;;19.03;100.00;100604.91;1699777;84;21006;-78
2021/07/03 03:43:11;;;;;;;8.15;4.00;;;;;;;19.06;100.00;100599.33;1699893;83;21045;-80
2021/07/03 03:45:40;;;;;;;10.08;4.17;;;;;;;19.11;100.00;100601.50;1699690;84;21112;-83
2021/07/03 03:48:07;;;;;;;8.95;4.50;;;;;;;19.15;100.00;100604.13;1699871;84;21505;-86
2021/07/03 03:50:37;;;;;;;8.00;4.37;;;;;;;19.18;100.00;100601.18;1698414;84;21585;-87
2021/07/03 03:53:04;;;;;;;12.18;4.12;;;;;;;19.18;100.00;100607.27;1692671;84;20990;-84
2021/07/03 03:55:31;;;;;;;13.35;4.60;;;;;;;19.21;100.00;100613.53;1699501;84;20944;-81
2021/07/03 03:57:59;;;;;;;10.20;4.33;;;;;;;19.25;100.00;100610.09;1697474;84;21151;-80
2021/07/03 04:00:27;;;;;;;11.15;4.60;;;;;;;19.29;100.00;100614.07;1699852;84;21016;-85
2021/07/03 04:02:55;;;;;;;6.95;3.95;;;;;;;19.32;100.00;100615.90;1699569;84;20951;-80
2021/07/03 04:05:24;;;;;;;10.18;4.10;;;;;;;19.36;100.00;100615.09;1699701;84;21034;-85
2021/07/03 04:07:54;;;;;;;14.30;4.20;;;;;;;19.38;100.00;100617.89;1699841;84;21090;-79
2021/07/03 04:10:22;;;;;;;8.85;4.45;;;;;;;19.43;100.00;100617.46;1699827;84;21113;-84
2021/07/03 04:12:50;;;;;;;8.23;4.65;;;;;;;19.49;100.00;100621.59;1699927;84;20932;-79
2021/07/03 04:15:17;;;;;;;6.83;4.10;;;;;;;19.56;100.00;100621.75;1699947;84;21585;-80
2021/07/03 04:17:43;;;;;;;8.40;4.33;;;;;;;19.60;100.00;100617.00;1699794;84;21018;-82
2021/07/03 04:20:10;;;;;;;12.30;4.40;;;;;;;19.63;100.00;100619.31;1699646;84;21707;-80
2021/07/03 04:22:38;;;;;;;8.30;4.08;;;;;;;19.66;100.00;100621.62;1697456;84;22029;-85
2021/07/03 04:25:08;;;;;;;9.85;3.62;;;;;;;19.70;100.00;100614.56;1699609;84;20951;-81
2021/07/03 04:27:35;;;;;;;11.53;3.90;;;;;;;19.74;100.00;100615.91;1699818;84;21010;-87
2021/07/03 04:30:10;;;;;;;4.53;3.80;;;;;;;19.80;100.00;100617.06;1699904;84;21058;-79
2021/07/03 04:32:38;;;;;;;11.00;3.90;;;;;;;19.84;100.00;100623.17;1699790;83;21497;-76
2021/07/03 04:35:06;;;;;;;7.87;3.90;;;;;;;19.87;100.00;100621.53;1699648;84;21103;-88
2021/07/03 04:37:34;;;;;;;9.28;4.00;;;;;;;19.91;100.00;100623.35;1699622;84;21541;-80
2021/07/03 04:40:04;;;;;;;9.55;3.67;;;;;;;19.95;100.00;100616.75;1699848;84;21434;-81
2021/07/03 04:42:31;;;;;;;6.90;3.70;;;;;;;19.97;100.00;100617.43;1699842;84;20963;-83
2021/07/03 04:44:57;;;;;;;13.25;4.47;;;;;;;20.00;100.00;100613.16;1699808;84;20991;-83
2021/07/03 04:47:26;;;;;;;7.45;4.20;;;;;;;20.04;100.00;100608.70;1699963;84;21142;-78
2021/07/03 04:49:52;;;;;;;7.25;3.85;;;;;;;20.07;100.00;100604.41;1699662;84;21454;-82
2021/07/03 04:52:19;;;;;;;7.72;3.22;;;;;;;20.13;100.00;100608.23;1699770;84;20880;-81
2021/07/03 04:54:45;;;;;;;7.87;3.40;;;;;;;20.18;100.00;100610.36;1699766;84;21560;-81
2021/07/03 04:57:13;;;;;;;9.80;3.80;;;;;;;20.23;100.00;100604.91;1699859;84;21003;-83
2021/07/03 04:59:43;;;;;;;6.70;3.72;;;;;;;20.30;100.00;100601.98;1699939;84;21123;-86
2021/07/03 05:02:12;;;;;;;5.15;3.42;;;;;;;20.34;97.79;100605.95;1699421;84;20903;-86
2021/07/03 05:04:42;;;;;;;5.15;4.12;;;;;;;20.33;96.98;100605.61;1682343;84;21035;-87
2021/07/03 05:07:10;;;;;;;6.53;4.10;;;;;;;20.33;96.03;100612.20;1668244;86;20980;-85
2021/07/03 05:09:39;;;;;;;8.28;4.40;;;;;;;20.34;95.56;100611.22;1671682;85;20956;-90
2021/07/03 05:12:06;;;;;;;5.35;4.17;;;;;;;20.35;94.93;100611.55;1668161;86;21073;-83
2021/07/03 05:14:35;;;;;;;5.45;3.50;;;;;;;20.40;95.47;100608.41;1672251;85;21054;-85
2021/07/03 05:17:02;;;;;;;8.75;4.35;;;;;;;20.46;95.56;100609.89;1668082;86;20920;-89
2021/07/03 05:19:31;;;;;;;6.15;3.80;;;;;;;20.49;93.97;100606.91;1653055;85;21446;-79
2021/07/03 05:22:01;;;;;;;4.70;4.12;;;;;;;20.52;92.41;100611.03;1667965;84;20908;-82
2021/07/03 05:24:28;;;;;;;4.75;3.80;;;;;;;20.55;92.80;100609.38;1672513;85;21750;-83
2021/07/03 05:27:00;;;;;;;6.05;3.90;;;;;;;20.59;93.41;100605.42;1668314;86;21062;-81
2021/07/03 05:29:26;;;;;;;6.33;3.85;;;;;;;20.65;93.00;100608.70;1672535;85;21014;-81
2021/07/03 05:31:57;;;;;;;5.67;3.52;;;;;;;20.73;92.00;100605.25;1668023;84;20939;-82
2021/07/03 05:34:24;;;;;;;13.03;4.25;;;;;;;20.80;91.17;100604.91;1672510;85;21083;-86
2021/07/03 05:36:51;;;;;;;10.28;4.37;;;;;;;20.87;92.06;100605.86;1668402;86;21188;-81
2021/07/03 05:39:18;;;;;;;7.42;4.17;;;;;;;20.94;92.45;100609.47;1672198;85;20926;-81
2021/07/03 05:41:45;;;;;;;6.87;3.90;;;;;;;21.00;92.83;100616.22;1668181;86;20956;-79
2021/07/03 05:44:12;;;;;;;10.08;4.28;;;;;;;21.06;92.16;100615.53;1672419;85;21107;-82
2021/07/03 05:46:38;;;;;;;13.95;5.03;;;;;;;21.12;90.96;100621.17;1668285;86;21023;-82
2021/07/03 05:49:05;;;;;;;6.12;4.50;;;;;;;21.15;90.77;100615.06;1653034;85;22332;-82
2021/07/03 05:51:31;;;;;;;7.83;4.87;;;;;;;21.15;90.45;100615.55;1668393;86;20880;-79
2021/07/03 05:53:58;;;;;;;8.58;4.25;;;;;;;21.15;90.38;100620.34;1672548;85;21003;-79
2021/07/03 05:56:27;;;;;;;5.50;3.62;;;;;;;21.18;88.96;100617.85;1668200;86;21006;-86
2021/07/03 05:58:55;;;;;;;5.25;3.95;;;;;;;21.21;86.05;100620.98;1672308;85;21045;-84
2021/07/03 06:01:23;;;;;;;5.50;4.40;;;;;;;21.23;86.87;100619.47;1668373;86;21082;-80
2021/07/03 06:03:50;;;;;;;6.53;4.72;;;;;;;21.24;86.46;100621.95;1673895;84;20896;-83
2021/07/03 06:06:16;;;;;;;4.87;4.03;;;;;;;21.26;85.89;100619.95;1703255;84;20980;-80
2021/07/03 06:08:44;;;;;;;9.40;4.83;;;;;;;21.27;86.07;100623.42;1699886;84;21066;-80
2021/07/03 06:11:11;;;;;;;8.93;4.55;;;;;;;21.29;86.26;100616.97;1699863;84;20967;-82
2021/07/03 06:13:37;;;;;;;5.10;4.28;;;;;;;21.33;86.24;100613.50;1699806;83;21442;-84
2021/07/03 06:16:05;;;;;;;5.20;4.45;;;;;;;21.36;84.72;100610.02;1700389;84;20986;-86
2021/07/03 06:18:32;;;;;;;5.05;4.35;;;;;;;21.35;84.52;100604.41;1700393;84;20968;-84
2021/07/03 06:20:59;;;;;;;6.62;4.33;;;;;;;21.37;85.14;100606.89;1700027;84;21015;-86
2021/07/03 06:23:28;;;;;;;6.03;4.47;;;;;;;21.41;83.73;100609.52;1698453;84;21047;-82
2021/07/03 06:25:54;;;;;;;5.95;4.33;;;;;;;21.41;83.62;100599.75;1699883;84;21104;-87
2021/07/03 06:28:21;;;;;;;5.22;4.72;;;;;;;21.44;82.58;100594.66;1699974;84;21556;-84
2021/07/03 06:30:48;;;;;;;6.03;4.85;;;;;;;21.47;82.25;100592.98;1700085;84;20971;-88
2021/07/03 06:33:14;;;;;;;5.03;4.62;;;;;;;21.50;82.68;100593.46;1699639;84;20990;-82
2021/07/03 06:35:41;;;;;;;5.85;4.65;;;;;;;21.54;81.92;100598.70;1699792;84;21062;-85
2021/07/03 06:38:09;;;;;;;6.42;4.55;;;;;;;21.57;83.00;100594.39;1700241;84;22431;-84
2021/07/03 06:40:36;;;;;;;8.28;5.28;;;;;;;21.65;82.38;100592.21;1699650;84;20931;-80
2021/07/03 06:43:05;;;;;;;5.03;4.50;;;;;;;21.71;82.99;100586.72;1699846;84;20920;-89
2021/07/03 06:45:32;;;;;;;7.72;4.55;;;;;;;21.82;82.25;100587.16;1699629;84;20903;-82
2021/07/03 06:47:59;;;;;;;4.87;4.33;;;;;;;21.92;81.19;100577.19;1699864;84;20907;-83
2021/07/03 06:50:26;;;;;;;7.40;4.25;;;;;;;22.04;78.95;100571.02;1699977;84;21101;-83
2021/07/03 06:52:53;;;;;;;6.20;3.90;;;;;;;22.17;77.97;100571.23;1699771;84;20991;-88
2021/07/03 06:55:19;;;;;;;4.47;3.87;;;;;;;22.24;76.70;100568.70;1699997;84;21044;-90
2021/07/03 06:57:50;;;;;;;5.25;4.37;;;;;;;22.27;76.67;100569.67;1699685;84;21070;-87
2021/07/03 07:00:24;;;;;;;6.55;4.37;;;;;;;22.36;76.12;100563.30;1700033;84;21584;-84
2021/07/03 07:02:50;;;;;;;4.10;3.70;;;;;;;22.38;76.66;100568.72;1699912;84;21120;-87
2021/07/03 07:05:19;;;;;;;4.55;3.77;;;;;;;22.41;76.67;100568.36;1699692;84;21008;-85
2021/07/03 07:07:45;;;;;;;5.95;4.15;;;;;;;22.46;77.06;100558.58;1699946;84;21481;-86
2021/07/03 07:10:14;;;;;;;4.92;3.98;;;;;;;22.54;77.91;100557.98;1699807;84;21141;-85
2021/07/03 07:12:42;;;;;;;4.95;4.45;;;;;;;22.62;77.06;100561.86;1699520;84;21533;-78
2021/07/03 07:15:09;;;;;;;5.50;4.00;;;;;;;22.67;76.36;100557.39;1699749;84;21159;-82
2021/07/03 07:17:37;;;;;;;6.80;3.92;;;;;;;22.75;75.56;100557.29;1699758;84;21020;-83
2021/07/03 07:20:09;;;;;;;5.65;4.35;;;;;;;22.81;75.68;100562.37;1699186;84;21492;-87
2021/07/03 07:22:39;;;;;;;5.97;4.40;;;;;;;22.87;76.06;100561.64;1699910;84;20998;-86
2021/07/03 07:25:06;;;;;;;5.22;4.70;;;;;;;22.90;75.94;100565.25;1699491;84;21027;-83
2021/07/03 07:27:33;;;;;;;5.62;4.08;;;;;;;22.91;75.37;100555.78;1699633;84;21160;-86
2021/07/03 07:30:02;;;;;;;5.30;4.62;;;;;;;22.92;73.65;100559.25;1700077;84;20864;-89
2021/07/03 07:32:28;;;;;;;6.55;4.62;;;;;;;22.90;74.18;100558.13;1700352;84;21079;-83
2021/07/03 07:34:55;;;;;;;6.85;4.28;;;;;;;22.86;74.28;100558.67;1700228;84;20959;-86
2021/07/03 07:37:23;;;;;;;5.58;4.17;;;;;;;22.83;73.44;100563.00;1699937;84;21548;-85
2021/07/03 07:39:52;;;;;;;4.78;4.10;;;;;;;22.84;74.00;100562.84;1673340;84;20999;-87
2021/07/03 07:42:18;;;;;;;4.37;4.03;;;;;;;22.87;73.34;100562.47;1699601;84;21603;-85
2021/07/03 07:44:45;;;;;;;4.83;4.22;;;;;;;22.90;73.06;100562.59;1700035;83;20963;-86
2021/07/03 07:47:12;;;;;;;4.40;4.00;;;;;;;22.91;71.33;100563.72;1699716;84;20923;-86
2021/07/03 07:49:39;;;;;;;5.62;3.58;;;;;;;22.94;71.51;100563.88;1699729;84;20932;-84
2021/07/03 07:52:06;;;;;;;4.30;3.65;;;;;;;22.99;71.67;100562.81;1699887;84;21105;-82
2021/07/03 07:54:33;;;;;;;6.25;3.70;;;;;;;23.08;71.30;100574.95;1699521;84;21441;-82
2021/07/03 07:56:59;;;;;;;5.97;3.65;;;;;;;23.13;71.68;100570.73;1699796;84;20919;-83
2021/07/03 07:59:27;;;;;;;5.75;2.70;;;;;;;23.15;71.58;100570.06;1699738;84;20935;-90
2021/07/03 08:01:54;;;;;;;3.95;3.45;;;;;;;23.16;68.85;100565.09;1699970;84;21719;-84
2021/07/03 08:04:21;;;;;;;6.72;3.20;;;;;;;23.17;68.47;100565.89;1699777;84;21112;-82
2021/07/03 08:06:49;;;;;;;4.78;3.55;;;;;;;23.17;69.67;100565.39;1699772;84;20997;-84
2021/07/03 08:09:17;;;;;;;7.72;4.78;;;;;;;23.23;70.08;100573.09;1699434;83;21018;-84
2021/07/03 08:11:45;;;;;;;4.33;3.50;;;;;;;23.29;70.61;100569.73;1699888;84;21003;-87
2021/07/03 08:14:11;;;;;;;7.65;5.15;;;;;;;23.41;68.97;100576.22;1699805;84;20872;-86
2021/07/03 08:16:40;;;;;;;5.97;4.08;;;;;;;23.50;68.67;100570.30;1699487;84;21517;-85
2021/07/03 08:19:09;;;;;;;3.83;3.40;;;;;;;23.53;68.50;100572.06;1699433;84;20994;-85
2021/07/03 08:21:39;;;;;;;8.58;3.67;;;;;;;23.60;67.56;100571.64;1699658;84;21011;-83
2021/07/03 08:24:07;;;;;;;3.83;3.35;;;;;;;23.69;67.54;100572.34;1699174;83;38585;-85
2021/07/03 08:26:34;;;;;;;5.72;3.33;;;;;;;23.77;68.83;100576.70;1699800;84;20931;-85
2021/07/03 08:29:01;;;;;;;7.37;3.10;;;;;;;23.87;68.80;100573.25;1699637;84;21105;-83
2021/07/03 08:31:28;;;;;;;4.20;2.90;;;;;;;23.93;69.01;100573.28;1699469;84;20920;-88
2021/07/03 08:33:54;;;;;;;2.92;2.72;;;;;;;24.03;69.32;100567.16;1699575;84;20983;-84
2021/07/03 08:36:21;;;;;;;3.65;3.10;;;;;;;24.09;66.35;100574.88;1699804;84;20959;-86
2021/07/03 08:38:47;;;;;;;4.95;3.05;;;;;;;24.13;66.81;100572.17;1700059;84;20987;-79
2021/07/03 08:41:14;;;;;;;4.50;3.62;;;;;;;24.19;67.05;100572.22;1699757;84;21845;-83
2021/07/03 08:43:52;;;;;;;4.33;3.10;;;;;;;24.26;66.28;100583.39;1699702;84;21132;-84
2021/07/03 08:46:19;;;;;;;4.33;3.10;;;;;;;24.27;62.28;100581.89;1700233;84;21066;-90
2021/07/03 08:48:49;;;;;;;4.05;3.08;;;;;;;24.25;63.30;100582.56;1699828;84;20923;-83
2021/07/03 08:51:24;;;;;;;6.95;3.17;;;;;;;24.21;61.86;100587.96;1699997;84;21086;-86
2021/07/03 08:53:55;;;;;;;3.17;2.98;;;;;;;24.13;63.22;100591.55;1699612;84;21066;-87
2021/07/03 08:56:22;;;;;;;3.65;2.87;;;;;;;24.18;64.42;100591.00;1699622;84;20947;-83
2021/07/03 08:58:49;;;;;;;3.83;2.98;;;;;;;24.27;64.58;100590.34;1699923;84;20871;-84
2021/07/03 09:01:16;;;;;;;5.97;3.00;;;;;;;24.35;64.30;100589.69;1700138;84;21045;-86
2021/07/03 09:03:56;;;;;;;4.87;2.77;;;;;;;24.39;61.11;100586.98;1700345;84;21014;-84
2021/07/03 09:06:36;;;;;;;4.12;3.25;;;;;;;24.37;61.20;100588.19;1700304;84;21107;-87
2021/07/03 09:09:05;;;;;;;6.75;3.42;;;;;;;24.40;61.65;100585.98;1674115;84;21216;-89
2021/07/03 09:11:32;;;;;;;3.27;3.05;;;;;;;24.51;60.50;100584.10;1699886;83;21399;-83
2021/07/03 09:14:09;;;;;;;7.10;2.90;;;;;;;24.63;62.93;100585.20;1699778;84;20971;-91
2021/07/03 09:16:36;;;;;;;4.92;3.10;;;;;;;24.79;61.38;100581.95;1699852;84;20932;-78
2021/07/03 09:19:04;;;;;;;5.03;3.45;;;;;;;24.89;61.84;100584.58;1700049;84;21522;-85
2021/07/03 09:21:32;;;;;;;7.22;2.90;;;;;;;24.78;57.16;100578.47;1699699;84;20964;-89
2021/07/03 09:23:59;;;;;;;3.20;2.40;;;;;;;24.64;58.94;100584.20;1699801;84;21023;-86
2021/07/03 09:26:26;;;;;;;2.65;2.45;;;;;;;24.65;58.95;100578.39;1699847;84;21125;-82
2021/07/03 09:28:52;;;;;;;3.35;2.60;;;;;;;24.69;58.30;100575.16;1699832;84;20956;-83
2021/07/03 09:31:20;;;;;;;7.05;2.92;;;;;;;24.73;60.23;100579.05;1700173;84;22004;-87
2021/07/03 09:33:52;;;;;;;2.67;2.47;;;;;;;24.81;58.87;100582.56;1699713;84;21738;-91
2021/07/03 09:36:28;;;;;;;2.75;2.55;;;;;;;24.88;58.98;100577.66;1700195;84;21510;-90
2021/07/03 09:38:56;;;;;;;2.42;2.22;;;;;;;24.96;60.43;100580.13;1674413;84;21033;-82
2021/07/03 09:41:38;;;;;;;3.58;2.80;;;;;;;25.11;57.91;100581.34;1700026;84;20931;-81
2021/07/03 09:44:10;;;;;;;2.90;2.60;;;;;;;25.06;57.49;100576.61;1700322;84;21121;-84
2021/07/03 09:46:50;;;;;;;3.05;2.70;;;;;;;25.05;57.95;100574.97;1700133;84;21051;-86
2021/07/03 09:49:28;;;;;;;4.15;2.30;;;;;;;25.13;56.12;100579.30;1699813;84;21529;-87
2021/07/03 09:51:58;;;;;;;2.75;2.55;;;;;;;25.23;58.36;100574.45;1700084;84;21034;-81
2021/07/03 09:54:30;;;;;;;4.83;2.47;;;;;;;25.42;57.71;100584.33;1697444;84;21592;-79
2021/07/03 09:57:00;;;;;;;3.55;2.30;;;;;;;25.49;56.28;100575.05;1699893;84;21143;-87
2021/07/03 09:59:33;;;;;;;2.87;2.12;;;;;;;25.50;56.41;100576.70;1699796;84;21006;-86
2021/07/03 10:02:00;;;;;;;2.70;2.30;;;;;;;25.46;55.18;100572.80;1700161;84;21093;-85
2021/07/03 10:04:27;;;;;;;2.87;2.58;;;;;;;25.63;55.28;100572.25;1700259;84;20955;-84
2021/07/03 10:07:04;;;;;;;4.55;2.30;;;;;;;25.87;55.76;100578.03;1700067;84;20959;-86
2021/07/03 10:09:51;;;;;;;2.30;2.10;;;;;;;26.02;55.95;100576.81;1699996;84;21858;-86
2021/07/03 10:12:29;;;;;;;2.98;2.40;;;;;;;26.11;54.75;100570.78;1699742;84;21007;-88
2021/07/03 10:14:55;;;;;;;4.55;2.30;;;;;;;26.20;53.66;100577.56;1698441;84;21022;-81
2021/07/03 10:17:30;;;;;;;2.52;2.10;;;;;;;26.26;53.93;100572.78;1699903;84;21522;-88
2021/07/03 10:19:58;;;;;;;3.83;2.20;;;;;;;26.38;53.15;100572.45;1700096;84;21002;-85
2021/07/03 10:22:30;;;;;;;2.50;2.12;;;;;;;26.51;51.36;100571.12;1699910;84;21836;-86
2021/07/03 10:25:13;;;;;;;8.28;2.30;;;;;;;26.53;52.31;100570.89;1699792;84;21257;-85
2021/07/03 10:27:58;;;;;;;2.90;2.22;;;;;;;26.54;52.14;100564.05;1698876;84;20971;-82
2021/07/03 10:30:29;;;;;;;4.22;2.37;;;;;;;26.71;51.49;100556.41;1699838;84;21046;-86
2021/07/03 10:33:03;;;;;;;7.65;2.20;;;;;;;26.51;52.73;100558.31;1700060;84;21581;-82
2021/07/03 10:35:48;;;;;;;2.45;1.90;;;;;;;26.25;53.44;100569.30;1699733;84;21801;-83
2021/07/03 10:38:24;;;;;;;2.17;1.98;;;;;;;26.18;51.60;100566.31;1699866;84;20990;-79
2021/07/03 10:40:56;;;;;;;2.62;2.10;;;;;;;26.12;53.02;100557.29;1699863;84;20911;-83
2021/07/03 10:43:23;;;;;;;1.98;1.87;;;;;;;26.24;53.15;100560.99;1687314;84;21469;-86
2021/07/03 10:45:54;;;;;;;3.47;1.98;;;;;;;26.29;53.01;100561.19;1699737;84;20994;-88
2021/07/03 10:48:26;;;;;;;3.72;1.77;;;;;;;26.34;53.00;100554.44;1699778;84;21133;-92
2021/07/03 10:50:57;;;;;;;2.12;1.92;;;;;;;26.35;54.27;100552.91;1700082;84;21026;-81
2021/07/03 10:53:29;;;;;;;2.67;2.20;;;;;;;26.45;52.66;100558.64;1699868;84;20919;-84
2021/07/03 10:56:15;;;;;;;4.60;2.08;;;;;;;26.46;53.37;100554.11;1699811;84;21037;-87
2021/07/03 10:58:43;;;;;;;2.15;1.90;;;;;;;26.51;53.48;100551.66;1699446;84;21482;-80
2021/07/03 11:01:13;;;;;;;2.72;2.08;;;;;;;26.51;55.67;100543.17;1699681;84;21121;-82
2021/07/03 11:03:47;;;;;;;2.20;1.90;;;;;;;26.67;54.62;100541.91;1699766;84;21045;-87
2021/07/03 11:06:19;;;;;;;3.85;2.00;;;;;;;26.83;52.09;100540.95;1699872;84;21015;-90
2021/07/03 11:08:47;;;;;;;2.77;2.30;;;;;;;26.89;53.49;100538.48;1700126;84;20947;-92
2021/07/03 11:11:17;;;;;;;4.53;2.20;;;;;;;26.88;53.43;100543.50;1699729;84;21089;-81
2021/07/03 11:13:46;;;;;;;3.00;2.12;;;;;;;26.78;52.50;100545.24;1699885;84;21002;-85
2021/07/03 11:16:14;;;;;;;3.22;2.37;;;;;;;26.52;53.46;100547.95;1699818;84;21418;-82
2021/07/03 11:18:43;;;;;;;1.82;1.72;;;;;;;26.35;55.12;100541.45;1699994;84;21074;-84
2021/07/03 11:21:12;;;;;;;4.62;2.10;;;;;;;26.23;53.64;100534.08;1700205;84;22578;-85
2021/07/03 11:23:40;;;;;;;7.45;2.35;;;;;;;26.09;55.06;100539.59;1700078;84;20943;-85
2021/07/03 11:26:16;;;;;;;4.40;2.10;;;;;;;26.13;56.17;100542.94;1700134;84;21789;-82